sensor_id;sensor_type;location;lat;lon;timestamp;P1;durP1;ratioP1;P2;durP2;ratioP2
71856;SDS011;63344;46.980;28.882;2023-04-05T00:02:00;6.07;;;4.05;;
71856;SDS011;63344;46.980;28.882;2023-04-05T00:04:28;7.32;;;4.10;;
71856;SDS011;63344;46.980;28.882;2023-04-05T00:06:56;7.70;;;4.50;;
71856;SDS011;63344;46.980;28.882;2023-04-05T00:09:24;7.40;;;4.85;;
71856;SDS011;63344;46.980;28.882;2023-04-05T00:11:51;7.20;;;4.13;;
71856;SDS011;63344;46.980;28.882;2023-04-05T00:14:19;4.18;;;2.60;;
71856;SDS011;63344;46.980;28.882;2023-04-05T00:16:46;7.78;;;5.03;;
71856;SDS011;63344;46.980;28.882;2023-04-05T00:19:13;7.15;;;4.68;;
71856;SDS011;63344;46.980;28.882;2023-04-05T00:21:40;7.65;;;4.47;;
71856;SDS011;63344;46.980;28.882;2023-04-05T00:24:08;4.22;;;3.33;;
71856;SDS011;63344;46.980;28.882;2023-04-05T00:26:41;4.15;;;2.40;;
71856;SDS011;63344;46.980;28.882;2023-04-05T00:29:09;4.78;;;3.20;;
71856;SDS011;63344;46.980;28.882;2023-04-05T00:31:36;7.22;;;4.35;;
71856;SDS011;63344;46.980;28.882;2023-04-05T00:34:04;5.22;;;3.60;;
71856;SDS011;63344;46.980;28.882;2023-04-05T00:36:34;7.13;;;3.22;;
71856;SDS011;63344;46.980;28.882;2023-04-05T00:39:02;5.95;;;3.00;;
71856;SDS011;63344;46.980;28.882;2023-04-05T00:41:29;4.78;;;3.42;;
71856;SDS011;63344;46.980;28.882;2023-04-05T00:43:56;4.07;;;2.75;;
71856;SDS011;63344;46.980;28.882;2023-04-05T00:46:25;4.22;;;3.10;;
71856;SDS011;63344;46.980;28.882;2023-04-05T00:48:54;4.13;;;2.90;;
71856;SDS011;63344;46.980;28.882;2023-04-05T00:51:22;4.60;;;3.45;;
71856;SDS011;63344;46.980;28.882;2023-04-05T00:53:50;3.95;;;2.80;;
71856;SDS011;63344;46.980;28.882;2023-04-05T00:56:18;3.83;;;2.70;;
71856;SDS011;63344;46.980;28.882;2023-04-05T00:58:47;3.15;;;2.17;;
71856;SDS011;63344;46.980;28.882;2023-04-05T01:01:20;2.75;;;2.25;;
71856;SDS011;63344;46.980;28.882;2023-04-05T01:03:52;2.53;;;2.03;;
71856;SDS011;63344;46.980;28.882;2023-04-05T01:06:39;1.70;;;1.60;;
71856;SDS011;63344;46.980;28.882;2023-04-05T01:09:16;3.15;;;2.17;;
71856;SDS011;63344;46.980;28.882;2023-04-05T01:11:50;3.88;;;1.98;;
71856;SDS011;63344;46.980;28.882;2023-04-05T01:14:21;3.67;;;2.38;;
71856;SDS011;63344;46.980;28.882;2023-04-05T01:16:48;2.72;;;1.70;;
71856;SDS011;63344;46.980;28.882;2023-04-05T01:19:17;7.85;;;2.40;;
71856;SDS011;63344;46.980;28.882;2023-04-05T01:21:58;3.10;;;1.63;;
71856;SDS011;63344;46.980;28.882;2023-04-05T01:30:14;2.90;;;2.22;;
71856;SDS011;63344;46.980;28.882;2023-04-05T01:32:49;3.00;;;2.17;;
71856;SDS011;63344;46.980;28.882;2023-04-05T01:35:49;2.40;;;1.65;;
71856;SDS011;63344;46.980;28.882;2023-04-05T01:38:34;3.13;;;1.88;;
71856;SDS011;63344;46.980;28.882;2023-04-05T01:41:06;3.15;;;2.03;;
71856;SDS011;63344;46.980;28.882;2023-04-05T01:43:33;2.35;;;1.90;;
71856;SDS011;63344;46.980;28.882;2023-04-05T01:46:01;1.65;;;1.52;;
71856;SDS011;63344;46.980;28.882;2023-04-05T01:48:28;1.85;;;1.48;;
71856;SDS011;63344;46.980;28.882;2023-04-05T01:50:56;2.03;;;1.35;;
71856;SDS011;63344;46.980;28.882;2023-04-05T01:53:23;1.38;;;0.88;;
71856;SDS011;63344;46.980;28.882;2023-04-05T01:55:52;2.00;;;1.45;;
71856;SDS011;63344;46.980;28.882;2023-04-05T01:58:19;2.17;;;1.58;;
71856;SDS011;63344;46.980;28.882;2023-04-05T02:00:46;1.77;;;1.40;;
71856;SDS011;63344;46.980;28.882;2023-04-05T02:03:13;2.38;;;1.95;;
71856;SDS011;63344;46.980;28.882;2023-04-05T02:05:41;1.50;;;0.90;;
71856;SDS011;63344;46.980;28.882;2023-04-05T02:08:08;1.73;;;1.30;;
71856;SDS011;63344;46.980;28.882;2023-04-05T02:10:36;1.83;;;1.50;;
71856;SDS011;63344;46.980;28.882;2023-04-05T02:13:03;1.90;;;1.35;;
71856;SDS011;63344;46.980;28.882;2023-04-05T02:15:30;1.73;;;1.17;;
71856;SDS011;63344;46.980;28.882;2023-04-05T02:17:59;1.30;;;1.13;;
71856;SDS011;63344;46.980;28.882;2023-04-05T02:20:29;1.70;;;1.30;;
71856;SDS011;63344;46.980;28.882;2023-04-05T02:22:59;1.92;;;1.65;;
71856;SDS011;63344;46.980;28.882;2023-04-05T02:25:28;3.28;;;2.08;;
71856;SDS011;63344;46.980;28.882;2023-04-05T02:27:55;1.95;;;1.60;;
71856;SDS011;63344;46.980;28.882;2023-04-05T02:30:22;1.42;;;1.10;;
71856;SDS011;63344;46.980;28.882;2023-04-05T02:32:49;3.63;;;1.48;;
71856;SDS011;63344;46.980;28.882;2023-04-05T02:35:17;1.58;;;0.77;;
71856;SDS011;63344;46.980;28.882;2023-04-05T02:40:14;1.45;;;1.00;;
71856;SDS011;63344;46.980;28.882;2023-04-05T02:42:41;2.03;;;1.63;;
71856;SDS011;63344;46.980;28.882;2023-04-05T02:45:09;3.75;;;1.63;;
71856;SDS011;63344;46.980;28.882;2023-04-05T02:47:36;2.45;;;1.60;;
71856;SDS011;63344;46.980;28.882;2023-04-05T02:50:04;2.08;;;1.50;;
71856;SDS011;63344;46.980;28.882;2023-04-05T02:52:32;2.15;;;1.60;;
71856;SDS011;63344;46.980;28.882;2023-04-05T02:55:00;1.85;;;1.10;;
71856;SDS011;63344;46.980;28.882;2023-04-05T02:57:27;2.50;;;2.03;;
71856;SDS011;63344;46.980;28.882;2023-04-05T02:59:55;1.80;;;1.27;;
71856;SDS011;63344;46.980;28.882;2023-04-05T03:02:22;2.03;;;1.13;;
71856;SDS011;63344;46.980;28.882;2023-04-05T03:04:52;0.88;;;0.70;;
71856;SDS011;63344;46.980;28.882;2023-04-05T03:07:19;1.30;;;1.10;;
71856;SDS011;63344;46.980;28.882;2023-04-05T03:09:49;1.70;;;1.25;;
71856;SDS011;63344;46.980;28.882;2023-04-05T03:12:17;2.15;;;1.67;;
71856;SDS011;63344;46.980;28.882;2023-04-05T03:14:44;2.05;;;1.38;;
71856;SDS011;63344;46.980;28.882;2023-04-05T03:17:12;2.15;;;1.55;;
71856;SDS011;63344;46.980;28.882;2023-04-05T03:19:40;2.88;;;1.88;;
71856;SDS011;63344;46.980;28.882;2023-04-05T03:22:11;2.63;;;1.65;;
71856;SDS011;63344;46.980;28.882;2023-04-05T03:24:38;2.05;;;1.23;;
71856;SDS011;63344;46.980;28.882;2023-04-05T03:27:08;2.08;;;1.42;;
71856;SDS011;63344;46.980;28.882;2023-04-05T03:29:35;2.25;;;1.55;;
71856;SDS011;63344;46.980;28.882;2023-04-05T03:32:03;2.78;;;1.65;;
71856;SDS011;63344;46.980;28.882;2023-04-05T03:34:30;1.70;;;1.17;;
71856;SDS011;63344;46.980;28.882;2023-04-05T03:36:57;0.82;;;0.68;;
71856;SDS011;63344;46.980;28.882;2023-04-05T03:39:28;2.08;;;1.75;;
71856;SDS011;63344;46.980;28.882;2023-04-05T03:41:56;2.28;;;1.95;;
71856;SDS011;63344;46.980;28.882;2023-04-05T03:44:23;1.45;;;1.08;;
71856;SDS011;63344;46.980;28.882;2023-04-05T03:46:50;4.13;;;2.83;;
71856;SDS011;63344;46.980;28.882;2023-04-05T03:49:18;5.13;;;2.63;;
71856;SDS011;63344;46.980;28.882;2023-04-05T03:51:45;2.10;;;1.50;;
71856;SDS011;63344;46.980;28.882;2023-04-05T03:54:12;2.67;;;1.95;;
71856;SDS011;63344;46.980;28.882;2023-04-05T03:56:40;1.38;;;0.68;;
71856;SDS011;63344;46.980;28.882;2023-04-05T03:59:07;1.92;;;1.35;;
71856;SDS011;63344;46.980;28.882;2023-04-05T04:01:36;2.85;;;2.03;;
71856;SDS011;63344;46.980;28.882;2023-04-05T04:04:07;2.70;;;1.88;;
71856;SDS011;63344;46.980;28.882;2023-04-05T04:06:35;3.05;;;1.80;;
71856;SDS011;63344;46.980;28.882;2023-04-05T04:09:02;2.88;;;2.13;;
71856;SDS011;63344;46.980;28.882;2023-04-05T04:11:32;2.65;;;1.90;;
71856;SDS011;63344;46.980;28.882;2023-04-05T04:13:59;2.50;;;1.88;;
71856;SDS011;63344;46.980;28.882;2023-04-05T04:16:27;1.77;;;1.25;;
71856;SDS011;63344;46.980;28.882;2023-04-05T04:19:00;3.22;;;1.75;;
71856;SDS011;63344;46.980;28.882;2023-04-05T04:21:28;2.75;;;1.80;;
71856;SDS011;63344;46.980;28.882;2023-04-05T04:24:06;2.42;;;2.08;;
71856;SDS011;63344;46.980;28.882;2023-04-05T04:26:33;1.95;;;1.38;;
71856;SDS011;63344;46.980;28.882;2023-04-05T04:29:03;2.10;;;1.58;;
71856;SDS011;63344;46.980;28.882;2023-04-05T04:31:38;2.47;;;1.52;;
71856;SDS011;63344;46.980;28.882;2023-04-05T04:34:05;2.42;;;1.85;;
71856;SDS011;63344;46.980;28.882;2023-04-05T04:36:33;2.58;;;1.92;;
71856;SDS011;63344;46.980;28.882;2023-04-05T04:39:01;3.05;;;2.60;;
71856;SDS011;63344;46.980;28.882;2023-04-05T04:41:32;4.05;;;2.53;;
71856;SDS011;63344;46.980;28.882;2023-04-05T04:43:59;2.03;;;1.42;;
71856;SDS011;63344;46.980;28.882;2023-04-05T04:46:32;2.97;;;1.63;;
71856;SDS011;63344;46.980;28.882;2023-04-05T04:49:09;2.97;;;1.90;;
71856;SDS011;63344;46.980;28.882;2023-04-05T04:51:37;1.77;;;1.42;;
71856;SDS011;63344;46.980;28.882;2023-04-05T04:54:04;3.17;;;1.98;;
71856;SDS011;63344;46.980;28.882;2023-04-05T04:56:34;2.83;;;1.65;;
71856;SDS011;63344;46.980;28.882;2023-04-05T04:59:02;2.15;;;1.42;;
71856;SDS011;63344;46.980;28.882;2023-04-05T05:01:29;4.03;;;2.67;;
71856;SDS011;63344;46.980;28.882;2023-04-05T05:03:57;4.00;;;1.90;;
71856;SDS011;63344;46.980;28.882;2023-04-05T05:06:25;1.98;;;1.58;;
71856;SDS011;63344;46.980;28.882;2023-04-05T05:08:53;2.13;;;1.52;;
71856;SDS011;63344;46.980;28.882;2023-04-05T05:11:24;3.00;;;2.10;;
71856;SDS011;63344;46.980;28.882;2023-04-05T05:13:54;2.33;;;1.25;;
71856;SDS011;63344;46.980;28.882;2023-04-05T05:16:22;2.33;;;2.00;;
71856;SDS011;63344;46.980;28.882;2023-04-05T05:18:50;3.08;;;2.22;;
71856;SDS011;63344;46.980;28.882;2023-04-05T05:21:23;3.45;;;2.53;;
71856;SDS011;63344;46.980;28.882;2023-04-05T05:23:50;2.60;;;1.55;;
71856;SDS011;63344;46.980;28.882;2023-04-05T05:26:17;2.05;;;1.75;;
71856;SDS011;63344;46.980;28.882;2023-04-05T05:28:44;3.85;;;2.38;;
71856;SDS011;63344;46.980;28.882;2023-04-05T05:31:13;3.17;;;1.40;;
71856;SDS011;63344;46.980;28.882;2023-04-05T05:33:41;2.67;;;1.60;;
71856;SDS011;63344;46.980;28.882;2023-04-05T05:36:08;2.13;;;1.48;;
71856;SDS011;63344;46.980;28.882;2023-04-05T05:38:35;2.20;;;1.33;;
71856;SDS011;63344;46.980;28.882;2023-04-05T05:41:03;2.55;;;1.83;;
71856;SDS011;63344;46.980;28.882;2023-04-05T05:43:30;2.15;;;1.73;;
71856;SDS011;63344;46.980;28.882;2023-04-05T05:46:01;2.58;;;1.60;;
71856;SDS011;63344;46.980;28.882;2023-04-05T05:48:29;3.03;;;1.50;;
71856;SDS011;63344;46.980;28.882;2023-04-05T05:50:58;2.47;;;1.92;;
71856;SDS011;63344;46.980;28.882;2023-04-05T05:53:38;2.60;;;1.48;;
71856;SDS011;63344;46.980;28.882;2023-04-05T05:56:06;3.05;;;2.05;;
71856;SDS011;63344;46.980;28.882;2023-04-05T06:01:07;10.07;;;5.53;;
71856;SDS011;63344;46.980;28.882;2023-04-05T06:03:34;8.90;;;4.40;;
71856;SDS011;63344;46.980;28.882;2023-04-05T06:06:03;5.03;;;3.13;;
71856;SDS011;63344;46.980;28.882;2023-04-05T06:08:34;5.15;;;2.60;;
71856;SDS011;63344;46.980;28.882;2023-04-05T06:11:02;2.55;;;1.73;;
71856;SDS011;63344;46.980;28.882;2023-04-05T06:13:29;3.47;;;2.45;;
71856;SDS011;63344;46.980;28.882;2023-04-05T06:15:58;3.40;;;1.95;;
71856;SDS011;63344;46.980;28.882;2023-04-05T06:18:27;3.53;;;2.03;;
71856;SDS011;63344;46.980;28.882;2023-04-05T06:20:57;3.33;;;2.08;;
71856;SDS011;63344;46.980;28.882;2023-04-05T06:23:24;3.88;;;2.42;;
71856;SDS011;63344;46.980;28.882;2023-04-05T06:25:52;3.45;;;1.75;;
71856;SDS011;63344;46.980;28.882;2023-04-05T06:28:19;4.05;;;2.15;;
71856;SDS011;63344;46.980;28.882;2023-04-05T06:30:46;5.60;;;2.35;;
71856;SDS011;63344;46.980;28.882;2023-04-05T06:33:14;3.15;;;2.08;;
71856;SDS011;63344;46.980;28.882;2023-04-05T06:35:41;2.40;;;1.58;;
71856;SDS011;63344;46.980;28.882;2023-04-05T06:38:08;2.92;;;1.40;;
71856;SDS011;63344;46.980;28.882;2023-04-05T06:40:36;3.03;;;2.00;;
71856;SDS011;63344;46.980;28.882;2023-04-05T06:43:03;2.78;;;1.52;;
71856;SDS011;63344;46.980;28.882;2023-04-05T06:45:30;2.78;;;1.63;;
71856;SDS011;63344;46.980;28.882;2023-04-05T06:47:58;3.25;;;1.95;;
71856;SDS011;63344;46.980;28.882;2023-04-05T06:50:25;3.90;;;2.60;;
71856;SDS011;63344;46.980;28.882;2023-04-05T06:52:52;2.20;;;1.63;;
71856;SDS011;63344;46.980;28.882;2023-04-05T06:55:20;3.40;;;2.10;;
71856;SDS011;63344;46.980;28.882;2023-04-05T06:57:47;2.03;;;1.20;;
71856;SDS011;63344;46.980;28.882;2023-04-05T07:00:15;2.75;;;2.45;;
71856;SDS011;63344;46.980;28.882;2023-04-05T07:02:43;4.50;;;3.08;;
71856;SDS011;63344;46.980;28.882;2023-04-05T07:05:11;4.93;;;2.20;;
71856;SDS011;63344;46.980;28.882;2023-04-05T07:07:39;3.63;;;1.73;;
71856;SDS011;63344;46.980;28.882;2023-04-05T07:10:08;2.10;;;1.40;;
71856;SDS011;63344;46.980;28.882;2023-04-05T07:12:38;3.10;;;2.00;;
71856;SDS011;63344;46.980;28.882;2023-04-05T07:15:07;3.28;;;2.00;;
71856;SDS011;63344;46.980;28.882;2023-04-05T07:17:36;2.85;;;1.77;;
71856;SDS011;63344;46.980;28.882;2023-04-05T07:20:04;2.40;;;1.70;;
71856;SDS011;63344;46.980;28.882;2023-04-05T07:22:35;1.98;;;1.67;;
71856;SDS011;63344;46.980;28.882;2023-04-05T07:25:06;4.50;;;2.05;;
71856;SDS011;63344;46.980;28.882;2023-04-05T07:27:35;5.90;;;2.00;;
71856;SDS011;63344;46.980;28.882;2023-04-05T07:30:06;2.80;;;1.52;;
71856;SDS011;63344;46.980;28.882;2023-04-05T07:32:35;3.15;;;2.00;;
71856;SDS011;63344;46.980;28.882;2023-04-05T07:35:04;2.95;;;1.90;;
71856;SDS011;63344;46.980;28.882;2023-04-05T07:37:31;2.78;;;1.70;;
71856;SDS011;63344;46.980;28.882;2023-04-05T07:43:09;3.55;;;1.95;;
71856;SDS011;63344;46.980;28.882;2023-04-05T07:45:37;5.40;;;3.92;;
71856;SDS011;63344;46.980;28.882;2023-04-05T07:48:05;10.80;;;7.07;;
71856;SDS011;63344;46.980;28.882;2023-04-05T07:50:34;5.93;;;4.93;;
71856;SDS011;63344;46.980;28.882;2023-04-05T07:53:03;5.07;;;2.33;;
71856;SDS011;63344;46.980;28.882;2023-04-05T07:55:36;5.10;;;2.40;;
71856;SDS011;63344;46.980;28.882;2023-04-05T07:58:05;2.05;;;1.85;;
71856;SDS011;63344;46.980;28.882;2023-04-05T08:00:37;3.92;;;1.58;;
71856;SDS011;63344;46.980;28.882;2023-04-05T08:03:05;3.42;;;2.33;;
71856;SDS011;63344;46.980;28.882;2023-04-05T08:05:35;2.08;;;1.48;;
71856;SDS011;63344;46.980;28.882;2023-04-05T08:08:02;2.50;;;2.25;;
71856;SDS011;63344;46.980;28.882;2023-04-05T08:10:31;5.00;;;2.20;;
71856;SDS011;63344;46.980;28.882;2023-04-05T08:12:58;4.82;;;3.08;;
71856;SDS011;63344;46.980;28.882;2023-04-05T08:15:25;3.33;;;2.25;;
71856;SDS011;63344;46.980;28.882;2023-04-05T08:17:52;6.70;;;2.80;;
71856;SDS011;63344;46.980;28.882;2023-04-05T08:20:20;2.97;;;1.45;;
71856;SDS011;63344;46.980;28.882;2023-04-05T08:22:49;5.78;;;4.13;;
71856;SDS011;63344;46.980;28.882;2023-04-05T08:25:21;4.32;;;3.22;;
71856;SDS011;63344;46.980;28.882;2023-04-05T08:27:53;4.30;;;2.03;;
71856;SDS011;63344;46.980;28.882;2023-04-05T08:30:23;3.22;;;2.03;;
71856;SDS011;63344;46.980;28.882;2023-04-05T08:32:54;5.70;;;3.13;;
71856;SDS011;63344;46.980;28.882;2023-04-05T08:35:23;5.40;;;3.92;;
71856;SDS011;63344;46.980;28.882;2023-04-05T08:37:51;4.63;;;2.80;;
71856;SDS011;63344;46.980;28.882;2023-04-05T08:40:19;5.20;;;3.40;;
71856;SDS011;63344;46.980;28.882;2023-04-05T08:42:55;5.40;;;3.42;;
71856;SDS011;63344;46.980;28.882;2023-04-05T08:45:29;3.30;;;1.73;;
71856;SDS011;63344;46.980;28.882;2023-04-05T08:48:10;5.03;;;2.97;;
71856;SDS011;63344;46.980;28.882;2023-04-05T08:50:38;5.20;;;2.13;;
71856;SDS011;63344;46.980;28.882;2023-04-05T08:53:06;3.00;;;2.22;;
71856;SDS011;63344;46.980;28.882;2023-04-05T08:55:36;4.45;;;2.45;;
71856;SDS011;63344;46.980;28.882;2023-04-05T08:58:06;3.05;;;1.95;;
71856;SDS011;63344;46.980;28.882;2023-04-05T09:00:39;3.50;;;2.35;;
71856;SDS011;63344;46.980;28.882;2023-04-05T09:03:16;3.72;;;2.42;;
71856;SDS011;63344;46.980;28.882;2023-04-05T09:05:49;8.57;;;5.03;;
71856;SDS011;63344;46.980;28.882;2023-04-05T09:08:22;3.55;;;2.50;;
71856;SDS011;63344;46.980;28.882;2023-04-05T09:10:49;4.60;;;2.42;;
71856;SDS011;63344;46.980;28.882;2023-04-05T09:13:19;4.32;;;2.90;;
71856;SDS011;63344;46.980;28.882;2023-04-05T09:15:47;4.72;;;3.20;;
71856;SDS011;63344;46.980;28.882;2023-04-05T09:18:15;4.55;;;2.90;;
71856;SDS011;63344;46.980;28.882;2023-04-05T09:21:06;2.50;;;2.00;;
71856;SDS011;63344;46.980;28.882;2023-04-05T09:23:33;4.30;;;2.92;;
71856;SDS011;63344;46.980;28.882;2023-04-05T09:26:21;4.72;;;2.92;;
71856;SDS011;63344;46.980;28.882;2023-04-05T09:28:49;3.88;;;2.38;;
71856;SDS011;63344;46.980;28.882;2023-04-05T09:31:34;5.32;;;3.40;;
71856;SDS011;63344;46.980;28.882;2023-04-05T09:34:25;5.40;;;3.58;;
71856;SDS011;63344;46.980;28.882;2023-04-05T09:36:54;3.35;;;2.28;;
71856;SDS011;63344;46.980;28.882;2023-04-05T09:39:29;2.58;;;1.98;;
71856;SDS011;63344;46.980;28.882;2023-04-05T09:44:51;3.30;;;2.15;;
71856;SDS011;63344;46.980;28.882;2023-04-05T09:47:25;4.72;;;2.92;;
71856;SDS011;63344;46.980;28.882;2023-04-05T09:50:39;6.13;;;4.25;;
71856;SDS011;63344;46.980;28.882;2023-04-05T09:52:47;6.18;;;3.85;;
71856;SDS011;63344;46.980;28.882;2023-04-05T09:55:24;3.28;;;2.40;;
71856;SDS011;63344;46.980;28.882;2023-04-05T09:57:53;3.70;;;1.95;;
71856;SDS011;63344;46.980;28.882;2023-04-05T10:00:20;3.95;;;2.50;;
71856;SDS011;63344;46.980;28.882;2023-04-05T10:02:52;5.07;;;3.10;;
71856;SDS011;63344;46.980;28.882;2023-04-05T10:05:27;3.40;;;2.42;;
71856;SDS011;63344;46.980;28.882;2023-04-05T10:07:55;4.55;;;2.95;;
71856;SDS011;63344;46.980;28.882;2023-04-05T10:10:23;4.18;;;2.35;;
71856;SDS011;63344;46.980;28.882;2023-04-05T10:12:51;4.38;;;2.85;;
71856;SDS011;63344;46.980;28.882;2023-04-05T10:15:19;3.97;;;2.80;;
71856;SDS011;63344;46.980;28.882;2023-04-05T10:20:26;4.13;;;2.30;;
71856;SDS011;63344;46.980;28.882;2023-04-05T10:23:00;4.65;;;2.70;;
71856;SDS011;63344;46.980;28.882;2023-04-05T10:31:10;4.13;;;2.53;;
71856;SDS011;63344;46.980;28.882;2023-04-05T10:34:06;4.38;;;3.13;;
71856;SDS011;63344;46.980;28.882;2023-04-05T10:44:38;5.03;;;3.42;;
71856;SDS011;63344;46.980;28.882;2023-04-05T10:47:13;4.72;;;2.42;;
71856;SDS011;63344;46.980;28.882;2023-04-05T10:49:45;2.75;;;2.28;;
71856;SDS011;63344;46.980;28.882;2023-04-05T10:52:14;3.90;;;2.53;;
71856;SDS011;63344;46.980;28.882;2023-04-05T10:54:43;6.15;;;2.70;;
71856;SDS011;63344;46.980;28.882;2023-04-05T10:57:11;2.92;;;2.20;;
71856;SDS011;63344;46.980;28.882;2023-04-05T10:59:40;2.92;;;2.22;;
71856;SDS011;63344;46.980;28.882;2023-04-05T11:02:10;3.92;;;2.28;;
71856;SDS011;63344;46.980;28.882;2023-04-05T11:04:38;5.65;;;3.17;;
71856;SDS011;63344;46.980;28.882;2023-04-05T11:07:13;4.18;;;2.90;;
71856;SDS011;63344;46.980;28.882;2023-04-05T11:09:59;6.18;;;3.75;;
71856;SDS011;63344;46.980;28.882;2023-04-05T11:20:50;5.78;;;3.05;;
71856;SDS011;63344;46.980;28.882;2023-04-05T11:23:22;6.03;;;2.85;;
71856;SDS011;63344;46.980;28.882;2023-04-05T11:26:10;5.90;;;3.03;;
71856;SDS011;63344;46.980;28.882;2023-04-05T11:28:37;7.15;;;3.85;;
71856;SDS011;63344;46.980;28.882;2023-04-05T11:31:14;4.70;;;2.95;;
71856;SDS011;63344;46.980;28.882;2023-04-05T11:36:31;6.13;;;3.20;;
71856;SDS011;63344;46.980;28.882;2023-04-05T11:44:38;6.72;;;3.20;;
71856;SDS011;63344;46.980;28.882;2023-04-05T11:47:11;3.42;;;2.05;;
71856;SDS011;63344;46.980;28.882;2023-04-05T11:49:38;5.03;;;3.45;;
71856;SDS011;63344;46.980;28.882;2023-04-05T11:52:11;3.28;;;2.38;;
71856;SDS011;63344;46.980;28.882;2023-04-05T11:54:40;5.72;;;3.08;;
71856;SDS011;63344;46.980;28.882;2023-04-05T11:57:14;5.32;;;3.25;;
71856;SDS011;63344;46.980;28.882;2023-04-05T11:59:45;5.38;;;3.50;;
71856;SDS011;63344;46.980;28.882;2023-04-05T12:02:13;8.55;;;4.20;;
71856;SDS011;63344;46.980;28.882;2023-04-05T12:04:40;7.07;;;4.03;;
71856;SDS011;63344;46.980;28.882;2023-04-05T12:07:15;5.70;;;3.70;;
71856;SDS011;63344;46.980;28.882;2023-04-05T12:12:47;5.38;;;3.15;;
71856;SDS011;63344;46.980;28.882;2023-04-05T12:15:15;4.40;;;2.63;;
71856;SDS011;63344;46.980;28.882;2023-04-05T12:17:47;5.70;;;2.75;;
71856;SDS011;63344;46.980;28.882;2023-04-05T12:20:18;4.18;;;2.90;;
71856;SDS011;63344;46.980;28.882;2023-04-05T12:22:59;6.38;;;2.13;;
71856;SDS011;63344;46.980;28.882;2023-04-05T12:25:26;4.20;;;2.45;;
71856;SDS011;63344;46.980;28.882;2023-04-05T12:27:54;2.50;;;1.70;;
71856;SDS011;63344;46.980;28.882;2023-04-05T12:30:22;4.65;;;2.75;;
71856;SDS011;63344;46.980;28.882;2023-04-05T12:32:56;4.47;;;2.53;;
71856;SDS011;63344;46.980;28.882;2023-04-05T12:35:31;2.83;;;1.77;;
71856;SDS011;63344;46.980;28.882;2023-04-05T12:38:12;3.75;;;2.05;;
71856;SDS011;63344;46.980;28.882;2023-04-05T12:40:42;3.80;;;2.13;;
71856;SDS011;63344;46.980;28.882;2023-04-05T12:43:11;2.63;;;1.75;;
71856;SDS011;63344;46.980;28.882;2023-04-05T12:45:45;4.90;;;2.22;;
71856;SDS011;63344;46.980;28.882;2023-04-05T12:48:31;2.42;;;1.42;;
71856;SDS011;63344;46.980;28.882;2023-04-05T12:50:58;2.13;;;1.55;;
71856;SDS011;63344;46.980;28.882;2023-04-05T12:53:31;2.80;;;2.10;;
71856;SDS011;63344;46.980;28.882;2023-04-05T12:55:59;2.80;;;2.03;;
71856;SDS011;63344;46.980;28.882;2023-04-05T12:58:33;3.80;;;2.33;;
71856;SDS011;63344;46.980;28.882;2023-04-05T13:01:02;1.63;;;1.33;;
71856;SDS011;63344;46.980;28.882;2023-04-05T13:03:30;3.08;;;2.50;;
71856;SDS011;63344;46.980;28.882;2023-04-05T13:05:57;2.90;;;1.80;;
71856;SDS011;63344;46.980;28.882;2023-04-05T13:08:25;2.75;;;2.08;;
71856;SDS011;63344;46.980;28.882;2023-04-05T13:10:54;3.28;;;2.38;;
71856;SDS011;63344;46.980;28.882;2023-04-05T13:13:24;2.53;;;1.85;;
71856;SDS011;63344;46.980;28.882;2023-04-05T13:15:51;2.17;;;1.75;;
71856;SDS011;63344;46.980;28.882;2023-04-05T13:18:19;2.50;;;1.55;;
71856;SDS011;63344;46.980;28.882;2023-04-05T13:20:46;4.10;;;1.65;;
71856;SDS011;63344;46.980;28.882;2023-04-05T13:23:16;3.85;;;2.50;;
71856;SDS011;63344;46.980;28.882;2023-04-05T13:25:43;3.67;;;2.22;;
71856;SDS011;63344;46.980;28.882;2023-04-05T13:28:13;3.30;;;2.00;;
71856;SDS011;63344;46.980;28.882;2023-04-05T13:30:41;3.45;;;2.17;;
71856;SDS011;63344;46.980;28.882;2023-04-05T13:33:14;3.28;;;2.17;;
71856;SDS011;63344;46.980;28.882;2023-04-05T13:35:46;2.90;;;1.58;;
71856;SDS011;63344;46.980;28.882;2023-04-05T13:38:15;3.55;;;2.38;;
71856;SDS011;63344;46.980;28.882;2023-04-05T13:40:48;3.88;;;2.08;;
71856;SDS011;63344;46.980;28.882;2023-04-05T13:43:16;2.92;;;1.92;;
71856;SDS011;63344;46.980;28.882;2023-04-05T13:45:44;3.72;;;2.47;;
71856;SDS011;63344;46.980;28.882;2023-04-05T13:48:12;4.13;;;2.83;;
71856;SDS011;63344;46.980;28.882;2023-04-05T13:50:42;4.65;;;2.35;;
71856;SDS011;63344;46.980;28.882;2023-04-05T13:53:09;5.22;;;2.75;;
71856;SDS011;63344;46.980;28.882;2023-04-05T13:55:36;3.45;;;2.20;;
71856;SDS011;63344;46.980;28.882;2023-04-05T13:58:05;5.55;;;3.55;;
71856;SDS011;63344;46.980;28.882;2023-04-05T14:00:36;3.05;;;2.15;;
71856;SDS011;63344;46.980;28.882;2023-04-05T14:03:08;4.85;;;3.15;;
71856;SDS011;63344;46.980;28.882;2023-04-05T14:05:35;5.03;;;3.10;;
71856;SDS011;63344;46.980;28.882;2023-04-05T14:08:02;4.32;;;2.58;;
71856;SDS011;63344;46.980;28.882;2023-04-05T14:10:34;3.50;;;2.15;;
71856;SDS011;63344;46.980;28.882;2023-04-05T14:13:03;5.57;;;4.18;;
71856;SDS011;63344;46.980;28.882;2023-04-05T14:15:30;3.63;;;2.75;;
71856;SDS011;63344;46.980;28.882;2023-04-05T14:17:59;5.57;;;3.65;;
71856;SDS011;63344;46.980;28.882;2023-04-05T14:20:30;6.35;;;3.60;;
71856;SDS011;63344;46.980;28.882;2023-04-05T14:22:58;7.28;;;2.80;;
71856;SDS011;63344;46.980;28.882;2023-04-05T14:25:31;3.85;;;2.47;;
71856;SDS011;63344;46.980;28.882;2023-04-05T14:27:58;5.22;;;3.22;;
71856;SDS011;63344;46.980;28.882;2023-04-05T14:30:26;3.10;;;2.42;;
71856;SDS011;63344;46.980;28.882;2023-04-05T14:32:53;4.25;;;2.03;;
71856;SDS011;63344;46.980;28.882;2023-04-05T14:35:20;5.53;;;3.25;;
71856;SDS011;63344;46.980;28.882;2023-04-05T14:37:48;4.40;;;2.60;;
71856;SDS011;63344;46.980;28.882;2023-04-05T14:40:15;4.93;;;3.08;;
71856;SDS011;63344;46.980;28.882;2023-04-05T14:42:43;4.80;;;3.28;;
71856;SDS011;63344;46.980;28.882;2023-04-05T14:45:16;3.55;;;2.90;;
71856;SDS011;63344;46.980;28.882;2023-04-05T14:47:48;3.25;;;2.38;;
71856;SDS011;63344;46.980;28.882;2023-04-05T14:50:15;9.30;;;4.07;;
71856;SDS011;63344;46.980;28.882;2023-04-05T14:52:43;3.85;;;2.40;;
71856;SDS011;63344;46.980;28.882;2023-04-05T14:55:13;6.30;;;3.42;;
71856;SDS011;63344;46.980;28.882;2023-04-05T14:57:42;4.10;;;2.63;;
71856;SDS011;63344;46.980;28.882;2023-04-05T15:00:09;1.77;;;1.45;;
71856;SDS011;63344;46.980;28.882;2023-04-05T15:02:38;4.07;;;2.45;;
71856;SDS011;63344;46.980;28.882;2023-04-05T15:05:06;2.80;;;2.38;;
71856;SDS011;63344;46.980;28.882;2023-04-05T15:07:34;5.80;;;2.70;;
71856;SDS011;63344;46.980;28.882;2023-04-05T15:10:01;3.40;;;2.30;;
71856;SDS011;63344;46.980;28.882;2023-04-05T15:12:29;3.75;;;2.55;;
71856;SDS011;63344;46.980;28.882;2023-04-05T15:14:58;5.93;;;2.65;;
71856;SDS011;63344;46.980;28.882;2023-04-05T15:17:27;5.13;;;2.97;;
71856;SDS011;63344;46.980;28.882;2023-04-05T15:19:54;2.33;;;1.92;;
71856;SDS011;63344;46.980;28.882;2023-04-05T15:22:22;3.38;;;2.28;;
71856;SDS011;63344;46.980;28.882;2023-04-05T15:24:49;4.22;;;2.75;;
71856;SDS011;63344;46.980;28.882;2023-04-05T15:27:17;3.90;;;2.15;;
71856;SDS011;63344;46.980;28.882;2023-04-05T15:29:44;4.30;;;1.80;;
71856;SDS011;63344;46.980;28.882;2023-04-05T15:32:11;5.22;;;2.42;;
71856;SDS011;63344;46.980;28.882;2023-04-05T15:34:38;4.25;;;2.17;;
71856;SDS011;63344;46.980;28.882;2023-04-05T15:37:07;3.97;;;2.33;;
71856;SDS011;63344;46.980;28.882;2023-04-05T15:39:36;2.70;;;1.83;;
71856;SDS011;63344;46.980;28.882;2023-04-05T15:42:04;3.90;;;2.08;;